sensor_id;sensor_type;location;lat;lon;timestamp;pressure;altitude;pressure_sealevel;temperature;humidity
8253;BME280;61313;48.396;10.008;2023-02-19T00:01:08;96683.75;;;11.07;60.13
8253;BME280;61313;48.396;10.008;2023-02-19T00:03:38;96682.00;;;11.07;60.37
8253;BME280;61313;48.396;10.008;2023-02-19T00:06:05;96677.72;;;11.05;60.52
8253;BME280;61313;48.396;10.008;2023-02-19T00:08:32;96668.16;;;11.04;60.43
8253;BME280;61313;48.396;10.008;2023-02-19T00:11:03;96665.56;;;11.02;60.63
8253;BME280;61313;48.396;10.008;2023-02-19T00:13:30;96671.16;;;10.94;60.77
8253;BME280;61313;48.396;10.008;2023-02-19T00:15:55;96671.16;;;10.94;60.75
8253;BME280;61313;48.396;10.008;2023-02-19T00:18:22;96665.94;;;10.93;60.91
8253;BME280;61313;48.396;10.008;2023-02-19T00:20:47;96668.53;;;10.94;60.74
8253;BME280;61313;48.396;10.008;2023-02-19T00:23:13;96670.16;;;10.97;60.57
8253;BME280;61313;48.396;10.008;2023-02-19T00:25:38;96667.81;;;11.11;60.34
8253;BME280;61313;48.396;10.008;2023-02-19T00:28:04;96664.53;;;11.06;60.72
8253;BME280;61313;48.396;10.008;2023-02-19T00:30:29;96659.97;;;10.89;61.21
8253;BME280;61313;48.396;10.008;2023-02-19T00:32:55;96663.19;;;10.96;60.83
8253;BME280;61313;48.396;10.008;2023-02-19T00:35:21;96660.66;;;10.94;61.06
8253;BME280;61313;48.396;10.008;2023-02-19T00:37:46;96657.94;;;10.96;61.29
8253;BME280;61313;48.396;10.008;2023-02-19T00:40:12;96658.06;;;10.93;61.11
8253;BME280;61313;48.396;10.008;2023-02-19T00:42:37;96650.47;;;10.87;61.34
8253;BME280;61313;48.396;10.008;2023-02-19T00:45:03;96645.97;;;10.89;61.38
8253;BME280;61313;48.396;10.008;2023-02-19T00:47:28;96651.13;;;10.92;61.33
8253;BME280;61313;48.396;10.008;2023-02-19T00:49:54;96637.91;;;10.93;61.18
8253;BME280;61313;48.396;10.008;2023-02-19T00:52:19;96640.72;;;10.89;61.24
8253;BME280;61313;48.396;10.008;2023-02-19T00:54:44;96641.59;;;10.89;61.37
8253;BME280;61313;48.396;10.008;2023-02-19T00:57:10;96635.47;;;10.89;61.44
8253;BME280;61313;48.396;10.008;2023-02-19T00:59:35;96646.59;;;10.95;61.25
8253;BME280;61313;48.396;10.008;2023-02-19T01:02:01;96636.78;;;10.78;62.01
8253;BME280;61313;48.396;10.008;2023-02-19T01:04:27;96641.72;;;10.86;61.68
8253;BME280;61313;48.396;10.008;2023-02-19T01:06:52;96636.34;;;10.89;61.71
8253;BME280;61313;48.396;10.008;2023-02-19T01:09:18;96630.03;;;10.93;61.66
8253;BME280;61313;48.396;10.008;2023-02-19T01:11:43;96637.34;;;10.87;61.54
8253;BME280;61313;48.396;10.008;2023-02-19T01:14:09;96630.22;;;10.89;61.51
8253;BME280;61313;48.396;10.008;2023-02-19T01:16:35;96636.28;;;10.91;61.81
8253;BME280;61313;48.396;10.008;2023-02-19T01:19:00;96633.13;;;10.83;61.70
8253;BME280;61313;48.396;10.008;2023-02-19T01:21:27;96634.91;;;10.82;62.07
8253;BME280;61313;48.396;10.008;2023-02-19T01:23:53;96626.03;;;10.85;61.70
8253;BME280;61313;48.396;10.008;2023-02-19T01:26:24;96626.84;;;10.87;62.03
8253;BME280;61313;48.396;10.008;2023-02-19T01:28:50;96621.69;;;10.84;61.59
8253;BME280;61313;48.396;10.008;2023-02-19T01:31:19;96621.69;;;10.84;61.81
8253;BME280;61313;48.396;10.008;2023-02-19T01:33:46;96620.59;;;10.89;61.18
8253;BME280;61313;48.396;10.008;2023-02-19T01:36:12;96613.94;;;10.80;62.05
8253;BME280;61313;48.396;10.008;2023-02-19T01:38:38;96619.19;;;10.80;62.06
8253;BME280;61313;48.396;10.008;2023-02-19T01:41:06;96615.53;;;10.85;61.67
8253;BME280;61313;48.396;10.008;2023-02-19T01:43:33;96615.53;;;10.85;61.66
8253;BME280;61313;48.396;10.008;2023-02-19T01:45:59;96612.97;;;10.83;61.57
8253;BME280;61313;48.396;10.008;2023-02-19T01:48:31;96613.94;;;10.80;62.22
8253;BME280;61313;48.396;10.008;2023-02-19T01:51:11;96604.75;;;10.91;61.65
8253;BME280;61313;48.396;10.008;2023-02-19T01:53:44;96603.22;;;10.87;61.65
8253;BME280;61313;48.396;10.008;2023-02-19T01:56:11;96595.44;;;10.84;61.79
8253;BME280;61313;48.396;10.008;2023-02-19T01:58:38;96602.78;;;10.75;62.00
8253;BME280;61313;48.396;10.008;2023-02-19T02:01:06;96602.78;;;10.75;62.01
8253;BME280;61313;48.396;10.008;2023-02-19T02:03:33;96599.84;;;10.83;62.11
8253;BME280;61313;48.396;10.008;2023-02-19T02:06:29;96578.22;;;10.76;62.24
8253;BME280;61313;48.396;10.008;2023-02-19T02:08:56;96594.97;;;10.74;62.43
8253;BME280;61313;48.396;10.008;2023-02-19T02:11:51;96584.22;;;10.80;61.72
8253;BME280;61313;48.396;10.008;2023-02-19T02:14:18;96584.28;;;10.78;62.20
8253;BME280;61313;48.396;10.008;2023-02-19T02:19:33;96576.41;;;10.78;61.99
8253;BME280;61313;48.396;10.008;2023-02-19T02:22:18;96564.00;;;10.82;62.26
8253;BME280;61313;48.396;10.008;2023-02-19T02:33:30;96555.47;;;10.77;62.35
8253;BME280;61313;48.396;10.008;2023-02-19T02:36:07;96545.75;;;10.79;62.23
8253;BME280;61313;48.396;10.008;2023-02-19T02:38:37;96561.81;;;10.71;62.48
8253;BME280;61313;48.396;10.008;2023-02-19T02:41:05;96561.13;;;10.68;63.19
8253;BME280;61313;48.396;10.008;2023-02-19T02:43:31;96565.31;;;10.72;63.13
8253;BME280;61313;48.396;10.008;2023-02-19T02:45:57;96554.00;;;10.70;62.83
8253;BME280;61313;48.396;10.008;2023-02-19T02:48:30;96557.50;;;10.70;62.96
8253;BME280;61313;48.396;10.008;2023-02-19T02:50:59;96558.28;;;10.72;62.51
8253;BME280;61313;48.396;10.008;2023-02-19T02:56:30;96547.41;;;10.61;63.02
8253;BME280;61313;48.396;10.008;2023-02-19T02:59:00;96550.03;;;10.61;63.66
8253;BME280;61313;48.396;10.008;2023-02-19T03:01:30;96545.63;;;10.62;63.54
8253;BME280;61313;48.396;10.008;2023-02-19T03:07:07;96547.41;;;10.61;63.10
8253;BME280;61313;48.396;10.008;2023-02-19T03:09:40;96546.59;;;10.59;63.29
8253;BME280;61313;48.396;10.008;2023-02-19T03:12:13;96541.91;;;10.45;64.03
8253;BME280;61313;48.396;10.008;2023-02-19T03:15:03;96542.09;;;10.41;64.14
8253;BME280;61313;48.396;10.008;2023-02-19T03:17:55;96547.63;;;10.55;63.63
8253;BME280;61313;48.396;10.008;2023-02-19T03:20:45;96532.22;;;10.47;63.71
8253;BME280;61313;48.396;10.008;2023-02-19T03:23:12;96524.16;;;10.52;63.36
8253;BME280;61313;48.396;10.008;2023-02-19T03:25:39;96524.28;;;10.49;63.76
8253;BME280;61313;48.396;10.008;2023-02-19T03:28:27;96520.59;;;10.53;63.59
8253;BME280;61313;48.396;10.008;2023-02-19T03:31:15;96511.94;;;10.51;63.50
8253;BME280;61313;48.396;10.008;2023-02-19T03:33:44;96502.75;;;10.41;64.06
8253;BME280;61313;48.396;10.008;2023-02-19T03:36:12;96507.38;;;10.56;63.41
8253;BME280;61313;48.396;10.008;2023-02-19T03:38:55;96503.53;;;10.43;63.66
8253;BME280;61313;48.396;10.008;2023-02-19T03:41:32;96505.63;;;10.34;64.27
8253;BME280;61313;48.396;10.008;2023-02-19T03:46:38;96510.94;;;10.33;64.53
8253;BME280;61313;48.396;10.008;2023-02-19T03:49:28;96520.31;;;10.16;65.28
8253;BME280;61313;48.396;10.008;2023-02-19T03:55:07;96515.75;;;10.22;65.06
8253;BME280;61313;48.396;10.008;2023-02-19T03:58:04;96516.41;;;10.27;65.05
8253;BME280;61313;48.396;10.008;2023-02-19T04:03:15;96526.88;;;10.28;64.72
8253;BME280;61313;48.396;10.008;2023-02-19T04:05:47;96521.72;;;10.25;64.99
8253;BME280;61313;48.396;10.008;2023-02-19T04:08:16;96525.19;;;10.26;64.97
8253;BME280;61313;48.396;10.008;2023-02-19T04:10:45;96526.78;;;10.30;64.40
8253;BME280;61313;48.396;10.008;2023-02-19T04:13:35;96522.25;;;10.35;64.30
8253;BME280;61313;48.396;10.008;2023-02-19T04:16:06;96521.66;;;10.27;64.61
8253;BME280;61313;48.396;10.008;2023-02-19T04:18:37;96540.31;;;10.19;64.76
8253;BME280;61313;48.396;10.008;2023-02-19T04:21:05;96539.47;;;10.18;64.57
8253;BME280;61313;48.396;10.008;2023-02-19T04:23:35;96526.19;;;10.23;64.15
8253;BME280;61313;48.396;10.008;2023-02-19T04:26:02;96529.03;;;10.17;64.29
8253;BME280;61313;48.396;10.008;2023-02-19T04:28:28;96533.84;;;10.06;64.16
8253;BME280;61313;48.396;10.008;2023-02-19T04:30:55;96539.56;;;10.15;64.19
8253;BME280;61313;48.396;10.008;2023-02-19T04:33:20;96540.69;;;10.10;64.70
8253;BME280;61313;48.396;10.008;2023-02-19T04:35:45;96538.13;;;10.08;64.36
8253;BME280;61313;48.396;10.008;2023-02-19T04:38:11;96543.34;;;10.08;64.75
8253;BME280;61313;48.396;10.008;2023-02-19T04:40:38;96549.09;;;10.18;64.24
8253;BME280;61313;48.396;10.008;2023-02-19T04:43:04;96554.47;;;10.15;64.22
8253;BME280;61313;48.396;10.008;2023-02-19T04:45:29;96558.25;;;10.08;64.25
8253;BME280;61313;48.396;10.008;2023-02-19T04:47:56;96553.66;;;10.13;64.29
8253;BME280;61313;48.396;10.008;2023-02-19T04:50:22;96552.50;;;10.20;63.51
8253;BME280;61313;48.396;10.008;2023-02-19T04:52:48;96555.81;;;10.03;63.94
8253;BME280;61313;48.396;10.008;2023-02-19T04:55:13;96557.41;;;10.07;63.98
8253;BME280;61313;48.396;10.008;2023-02-19T04:57:39;96566.72;;;10.14;63.89
8253;BME280;61313;48.396;10.008;2023-02-19T05:00:05;96551.97;;;10.12;63.67
8253;BME280;61313;48.396;10.008;2023-02-19T05:02:30;96561.53;;;10.13;63.79
8253;BME280;61313;48.396;10.008;2023-02-19T05:04:56;96565.09;;;10.12;63.49
8253;BME280;61313;48.396;10.008;2023-02-19T05:07:21;96565.25;;;10.07;64.00
8253;BME280;61313;48.396;10.008;2023-02-19T05:09:46;96569.66;;;10.07;63.68
8253;BME280;61313;48.396;10.008;2023-02-19T05:12:12;96562.59;;;10.09;64.08
8253;BME280;61313;48.396;10.008;2023-02-19T05:14:37;96566.69;;;10.16;63.77
8253;BME280;61313;48.396;10.008;2023-02-19T05:17:03;96573.13;;;10.07;64.16
8253;BME280;61313;48.396;10.008;2023-02-19T05:19:28;96574.66;;;10.13;63.84
8253;BME280;61313;48.396;10.008;2023-02-19T05:21:53;96583.97;;;10.20;63.40
8253;BME280;61313;48.396;10.008;2023-02-19T05:24:19;96581.50;;;10.17;63.87
8253;BME280;61313;48.396;10.008;2023-02-19T05:26:44;96583.59;;;10.31;63.29
8253;BME280;61313;48.396;10.008;2023-02-19T05:29:10;96593.63;;;10.20;63.49
8253;BME280;61313;48.396;10.008;2023-02-19T05:31:35;96589.53;;;10.12;63.61
8253;BME280;61313;48.396;10.008;2023-02-19T05:34:01;96586.69;;;10.18;63.36
8253;BME280;61313;48.396;10.008;2023-02-19T05:36:26;96587.09;;;10.08;63.55
8253;BME280;61313;48.396;10.008;2023-02-19T05:38:54;96592.28;;;10.09;64.19
8253;BME280;61313;48.396;10.008;2023-02-19T05:41:22;96592.78;;;10.19;63.78
8253;BME280;61313;48.396;10.008;2023-02-19T05:43:49;96599.63;;;10.23;63.29
8253;BME280;61313;48.396;10.008;2023-02-19T05:46:17;96592.03;;;10.15;63.60
8253;BME280;61313;48.396;10.008;2023-02-19T05:48:44;96602.69;;;10.11;64.20
8253;BME280;61313;48.396;10.008;2023-02-19T05:51:12;96609.84;;;10.07;64.03
8253;BME280;61313;48.396;10.008;2023-02-19T05:53:38;96606.91;;;10.15;64.07
8253;BME280;61313;48.396;10.008;2023-02-19T05:56:04;96610.47;;;10.14;64.22
8253;BME280;61313;48.396;10.008;2023-02-19T05:58:41;96615.81;;;10.11;64.02
8253;BME280;61313;48.396;10.008;2023-02-19T06:01:15;96621.84;;;10.13;64.47
8253;BME280;61313;48.396;10.008;2023-02-19T06:03:40;96627.50;;;10.26;64.58
8253;BME280;61313;48.396;10.008;2023-02-19T06:06:06;96635.53;;;10.21;65.11
8253;BME280;61313;48.396;10.008;2023-02-19T06:08:31;96639.69;;;10.27;65.26
8253;BME280;61313;48.396;10.008;2023-02-19T06:10:57;96637.75;;;10.32;65.31
8253;BME280;61313;48.396;10.008;2023-02-19T06:13:22;96644.91;;;10.28;66.18
8253;BME280;61313;48.396;10.008;2023-02-19T06:15:47;96641.19;;;10.34;66.63
8253;BME280;61313;48.396;10.008;2023-02-19T06:18:13;96647.19;;;10.37;66.86
8253;BME280;61313;48.396;10.008;2023-02-19T06:20:38;96651.00;;;10.27;68.30
8253;BME280;61313;48.396;10.008;2023-02-19T06:23:04;96663.38;;;10.25;68.80
8253;BME280;61313;48.396;10.008;2023-02-19T06:25:29;96658.50;;;10.14;69.67
8253;BME280;61313;48.396;10.008;2023-02-19T06:27:54;96662.94;;;10.12;69.78
8253;BME280;61313;48.396;10.008;2023-02-19T06:30:20;96666.50;;;10.11;69.90
8253;BME280;61313;48.396;10.008;2023-02-19T06:32:45;96659.22;;;10.18;69.90
8253;BME280;61313;48.396;10.008;2023-02-19T06:35:11;96667.31;;;10.13;69.55
8253;BME280;61313;48.396;10.008;2023-02-19T06:37:36;96666.50;;;10.11;69.75
8253;BME280;61313;48.396;10.008;2023-02-19T06:40:01;96677.31;;;10.26;69.17
8253;BME280;61313;48.396;10.008;2023-02-19T06:42:30;96682.84;;;10.18;69.31
8253;BME280;61313;48.396;10.008;2023-02-19T06:44:56;96691.59;;;10.18;69.10
8253;BME280;61313;48.396;10.008;2023-02-19T06:47:22;96688.66;;;10.26;68.42
8253;BME280;61313;48.396;10.008;2023-02-19T06:49:47;96678.97;;;10.05;68.35
8253;BME280;61313;48.396;10.008;2023-02-19T06:52:13;96680.94;;;10.00;68.62
8253;BME280;61313;48.396;10.008;2023-02-19T06:54:38;96683.88;;;10.14;67.51
8253;BME280;61313;48.396;10.008;2023-02-19T06:57:03;96677.59;;;10.18;67.19
8253;BME280;61313;48.396;10.008;2023-02-19T06:59:29;96684.59;;;10.17;66.67
8253;BME280;61313;48.396;10.008;2023-02-19T07:01:54;96692.25;;;10.24;66.74
8253;BME280;61313;48.396;10.008;2023-02-19T07:04:19;96694.03;;;10.23;66.81
8253;BME280;61313;48.396;10.008;2023-02-19T07:06:45;96695.06;;;10.19;66.90
8253;BME280;61313;48.396;10.008;2023-02-19T07:09:10;96704.41;;;10.26;66.40
8253;BME280;61313;48.396;10.008;2023-02-19T07:11:37;96699.19;;;10.25;66.43
8253;BME280;61313;48.396;10.008;2023-02-19T07:14:05;96707.03;;;10.26;66.14
8253;BME280;61313;48.396;10.008;2023-02-19T07:16:34;96713.41;;;10.19;66.05
8253;BME280;61313;48.396;10.008;2023-02-19T07:19:00;96712.41;;;10.23;66.00
8253;BME280;61313;48.396;10.008;2023-02-19T07:21:26;96718.53;;;9.99;66.09
8253;BME280;61313;48.396;10.008;2023-02-19T07:23:52;96732.91;;;10.12;66.13
8253;BME280;61313;48.396;10.008;2023-02-19T07:26:19;96723.06;;;10.18;64.54
8253;BME280;61313;48.396;10.008;2023-02-19T07:28:46;96733.25;;;10.03;64.14
8253;BME280;61313;48.396;10.008;2023-02-19T07:31:13;96740.78;;;10.12;64.39
8253;BME280;61313;48.396;10.008;2023-02-19T07:33:41;96748.41;;;10.18;63.74
8253;BME280;61313;48.396;10.008;2023-02-19T07:36:08;96751.94;;;10.17;63.94
8253;BME280;61313;48.396;10.008;2023-02-19T07:38:33;96753.41;;;10.01;64.69
8253;BME280;61313;48.396;10.008;2023-02-19T07:41:01;96758.16;;;10.14;64.25
8253;BME280;61313;48.396;10.008;2023-02-19T07:43:28;96762.41;;;10.18;63.87
8253;BME280;61313;48.396;10.008;2023-02-19T07:45:54;96763.22;;;9.95;64.48
8253;BME280;61313;48.396;10.008;2023-02-19T07:48:20;96771.13;;;10.19;63.18
8253;BME280;61313;48.396;10.008;2023-02-19T07:50:56;96775.94;;;10.31;62.52
8253;BME280;61313;48.396;10.008;2023-02-19T07:53:22;96786.81;;;10.21;63.46
8253;BME280;61313;48.396;10.008;2023-02-19T07:55:48;96799.69;;;10.27;64.64
8253;BME280;61313;48.396;10.008;2023-02-19T07:58:14;96798.34;;;10.15;65.12
8253;BME280;61313;48.396;10.008;2023-02-19T08:00:39;96803.22;;;10.26;63.66
8253;BME280;61313;48.396;10.008;2023-02-19T08:03:05;96790.72;;;10.09;64.71
8253;BME280;61313;48.396;10.008;2023-02-19T08:05:33;96826.72;;;10.04;64.46
8253;BME280;61313;48.396;10.008;2023-02-19T08:08:00;96815.81;;;9.91;64.02
8253;BME280;61313;48.396;10.008;2023-02-19T08:10:26;96804.97;;;9.75;63.18
8253;BME280;61313;48.396;10.008;2023-02-19T08:13:13;96817.88;;;9.81;64.29
8253;BME280;61313;48.396;10.008;2023-02-19T08:16:07;96821.25;;;9.85;63.65
8253;BME280;61313;48.396;10.008;2023-02-19T08:18:32;96823.09;;;9.83;63.79
8253;BME280;61313;48.396;10.008;2023-02-19T08:20:58;96813.16;;;9.92;62.38
8253;BME280;61313;48.396;10.008;2023-02-19T08:23:25;96819.00;;;9.99;61.47
8253;BME280;61313;48.396;10.008;2023-02-19T08:25:51;96815.84;;;10.14;60.66
8253;BME280;61313;48.396;10.008;2023-02-19T08:28:18;96817.03;;;10.06;60.09
8253;BME280;61313;48.396;10.008;2023-02-19T08:30:45;96812.38;;;10.14;59.54
8253;BME280;61313;48.396;10.008;2023-02-19T08:33:14;96818.53;;;10.13;59.15
8253;BME280;61313;48.396;10.008;2023-02-19T08:35:39;96831.75;;;10.10;59.44
8253;BME280;61313;48.396;10.008;2023-02-19T08:38:06;96839.41;;;10.16;59.56
8253;BME280;61313;48.396;10.008;2023-02-19T08:40:32;96838.50;;;10.17;58.55
8253;BME280;61313;48.396;10.008;2023-02-19T08:43:06;96836.69;;;10.19;59.31
8253;BME280;61313;48.396;10.008;2023-02-19T08:45:31;96830.31;;;10.26;58.84
8253;BME280;61313;48.396;10.008;2023-02-19T08:47:57;96835.50;;;10.28;58.92
8253;BME280;61313;48.396;10.008;2023-02-19T08:50:23;96832.88;;;10.28;58.77
8253;BME280;61313;48.396;10.008;2023-02-19T08:52:49;96848.81;;;10.22;59.67
8253;BME280;61313;48.396;10.008;2023-02-19T08:55:14;96853.06;;;10.26;58.80
8253;BME280;61313;48.396;10.008;2023-02-19T08:57:40;96846.63;;;10.34;59.27
8253;BME280;61313;48.396;10.008;2023-02-19T09:00:06;96849.63;;;10.24;59.48
8253;BME280;61313;48.396;10.008;2023-02-19T09:02:33;96852.97;;;10.29;58.25
8253;BME280;61313;48.396;10.008;2023-02-19T09:04:58;96853.56;;;10.37;57.95
8253;BME280;61313;48.396;10.008;2023-02-19T09:07:24;96853.28;;;10.45;57.32
8253;BME280;61313;48.396;10.008;2023-02-19T09:09:49;96856.66;;;10.48;57.79
8253;BME280;61313;48.396;10.008;2023-02-19T09:12:15;96861.81;;;10.51;57.44
8253;BME280;61313;48.396;10.008;2023-02-19T09:14:40;96864.13;;;10.59;57.26
8253;BME280;61313;48.396;10.008;2023-02-19T09:17:07;96868.28;;;10.65;57.02
8253;BME280;61313;48.396;10.008;2023-02-19T09:19:33;96871.22;;;10.57;57.44
8253;BME280;61313;48.396;10.008;2023-02-19T09:21:58;96884.38;;;10.55;57.71
8253;BME280;61313;48.396;10.008;2023-02-19T09:24:24;96877.22;;;10.35;58.88
8253;BME280;61313;48.396;10.008;2023-02-19T09:26:50;96881.78;;;10.30;60.55
8253;BME280;61313;48.396;10.008;2023-02-19T09:29:16;96882.59;;;10.32;60.62
8253;BME280;61313;48.396;10.008;2023-02-19T09:31:42;96890.19;;;10.40;59.53
8253;BME280;61313;48.396;10.008;2023-02-19T09:34:07;96891.81;;;10.44;60.55
8253;BME280;61313;48.396;10.008;2023-02-19T09:36:33;96894.63;;;10.38;60.35
8253;BME280;61313;48.396;10.008;2023-02-19T09:38:59;96900.16;;;10.30;60.18
8253;BME280;61313;48.396;10.008;2023-02-19T09:43:56;96901.25;;;10.23;62.09
8253;BME280;61313;48.396;10.008;2023-02-19T09:46:42;96908.66;;;10.37;62.07
8253;BME280;61313;48.396;10.008;2023-02-19T09:49:16;96915.34;;;10.46;60.24
8253;BME280;61313;48.396;10.008;2023-02-19T09:51:46;96919.38;;;10.31;61.37
8253;BME280;61313;48.396;10.008;2023-02-19T09:54:21;96913.84;;;10.38;60.45
8253;BME280;61313;48.396;10.008;2023-02-19T09:56:47;96915.13;;;10.52;60.00
8253;BME280;61313;48.396;10.008;2023-02-19T09:59:19;96918.56;;;10.54;59.86
8253;BME280;61313;48.396;10.008;2023-02-19T10:01:47;96914.84;;;10.59;59.90
8253;BME280;61313;48.396;10.008;2023-02-19T10:04:14;96903.44;;;10.60;60.14
8253;BME280;61313;48.396;10.008;2023-02-19T10:06:40;96906.63;;;10.70;59.30
8253;BME280;61313;48.396;10.008;2023-02-19T10:09:22;96910.38;;;10.63;59.05
8253;BME280;61313;48.396;10.008;2023-02-19T10:11:49;96914.91;;;10.58;59.53
8253;BME280;61313;48.396;10.008;2023-02-19T10:14:19;96917.44;;;10.61;59.83
8253;BME280;61313;48.396;10.008;2023-02-19T10:16:48;96917.63;;;10.55;58.68
8253;BME280;61313;48.396;10.008;2023-02-19T10:19:14;96918.41;;;10.58;58.66
8253;BME280;61313;48.396;10.008;2023-02-19T10:21:40;96923.69;;;10.57;59.57
8253;BME280;61313;48.396;10.008;2023-02-19T10:24:07;96930.88;;;10.52;59.57
8253;BME280;61313;48.396;10.008;2023-02-19T10:26:38;96922.72;;;10.59;59.06
8253;BME280;61313;48.396;10.008;2023-02-19T10:29:04;96929.06;;;10.54;59.56
8253;BME280;61313;48.396;10.008;2023-02-19T10:31:32;96934.72;;;10.67;59.25
8253;BME280;61313;48.396;10.008;2023-02-19T10:33:59;96928.81;;;10.60;60.04
8253;BME280;61313;48.396;10.008;2023-02-19T10:36:31;96941.06;;;10.61;60.84
8253;BME280;61313;48.396;10.008;2023-02-19T10:38:59;96936.00;;;10.55;60.76
8253;BME280;61313;48.396;10.008;2023-02-19T10:41:26;96929.31;;;10.46;61.47
8253;BME280;61313;48.396;10.008;2023-02-19T10:44:44;96939.06;;;10.43;62.86
8253;BME280;61313;48.396;10.008;2023-02-19T10:46:52;96936.59;;;10.38;63.73
8253;BME280;61313;48.396;10.008;2023-02-19T10:49:28;96946.09;;;10.42;65.53
8253;BME280;61313;48.396;10.008;2023-02-19T10:51:59;96946.34;;;10.34;66.25
8253;BME280;61313;48.396;10.008;2023-02-19T10:54:33;96952.97;;;10.18;65.25
8253;BME280;61313;48.396;10.008;2023-02-19T10:59:56;96933.44;;;10.02;63.35
8253;BME280;61313;48.396;10.008;2023-02-19T11:02:23;96939.22;;;10.11;63.39
8253;BME280;61313;48.396;10.008;2023-02-19T11:05:21;96943.50;;;10.41;62.90
8253;BME280;61313;48.396;10.008;2023-02-19T11:07:56;96933.19;;;10.61;61.95
8253;BME280;61313;48.396;10.008;2023-02-19T11:12:55;96930.13;;;10.97;59.88
8253;BME280;61313;48.396;10.008;2023-02-19T11:20:45;96926.91;;;10.89;58.68
8253;BME280;61313;48.396;10.008;2023-02-19T11:23:16;96926.81;;;10.92;58.45
8253;BME280;61313;48.396;10.008;2023-02-19T11:25:46;96916.06;;;10.98;57.61
8253;BME280;61313;48.396;10.008;2023-02-19T11:30:44;96910.03;;;10.96;57.48
8253;BME280;61313;48.396;10.008;2023-02-19T11:35:48;96919.69;;;10.95;58.09
8253;BME280;61313;48.396;10.008;2023-02-19T11:38:15;96910.78;;;10.99;58.12
8253;BME280;61313;48.396;10.008;2023-02-19T11:46:04;96931.81;;;10.74;60.32
8253;BME280;61313;48.396;10.008;2023-02-19T11:51:28;96916.75;;;10.56;60.80
8253;BME280;61313;48.396;10.008;2023-02-19T11:54:41;96915.72;;;10.60;60.97
8253;BME280;61313;48.396;10.008;2023-02-19T11:57:33;96911.53;;;10.54;60.46
8253;BME280;61313;48.396;10.008;2023-02-19T12:00:18;96913.25;;;10.55;58.42
8253;BME280;61313;48.396;10.008;2023-02-19T12:08:08;96929.88;;;10.56;57.48
8253;BME280;61313;48.396;10.008;2023-02-19T12:21:44;96946.34;;;11.08;54.85
8253;BME280;61313;48.396;10.008;2023-02-19T12:38:30;96945.75;;;11.47;54.00
8253;BME280;61313;48.396;10.008;2023-02-19T12:43:40;96934.22;;;11.28;52.97
8253;BME280;61313;48.396;10.008;2023-02-19T12:46:15;96946.97;;;11.15;52.79
8253;BME280;61313;48.396;10.008;2023-02-19T12:48:52;96943.38;;;11.17;53.28
8253;BME280;61313;48.396;10.008;2023-02-19T12:51:24;96948.19;;;11.30;53.63
8253;BME280;61313;48.396;10.008;2023-02-19T12:54:03;96944.91;;;11.23;52.53
8253;BME280;61313;48.396;10.008;2023-02-19T12:57:34;96943.59;;;11.35;52.69
8253;BME280;61313;48.396;10.008;2023-02-19T13:02:39;96942.69;;;11.12;51.38
8253;BME280;61313;48.396;10.008;2023-02-19T13:08:19;96925.34;;;11.08;50.45
8253;BME280;61313;48.396;10.008;2023-02-19T13:10:54;96931.31;;;11.12;51.34
8253;BME280;61313;48.396;10.008;2023-02-19T13:13:34;96932.63;;;11.23;51.66
8253;BME280;61313;48.396;10.008;2023-02-19T13:16:08;96912.75;;;11.16;51.54
8253;BME280;61313;48.396;10.008;2023-02-19T13:18:44;96894.47;;;11.37;51.50
8253;BME280;61313;48.396;10.008;2023-02-19T13:21:12;96909.00;;;11.45;51.20
8253;BME280;61313;48.396;10.008;2023-02-19T13:24:00;96916.97;;;11.44;51.04
8253;BME280;61313;48.396;10.008;2023-02-19T13:30:06;96912.38;;;11.71;49.33
8253;BME280;61313;48.396;10.008;2023-02-19T13:32:39;96908.19;;;11.89;48.79
8253;BME280;61313;48.396;10.008;2023-02-19T13:38:12;96919.59;;;11.88;49.13
8253;BME280;61313;48.396;10.008;2023-02-19T13:40:42;96916.25;;;11.62;49.99
8253;BME280;61313;48.396;10.008;2023-02-19T13:43:35;96923.34;;;11.60;50.54
8253;BME280;61313;48.396;10.008;2023-02-19T13:46:07;96927.00;;;11.56;50.47
8253;BME280;61313;48.396;10.008;2023-02-19T13:48:35;96917.09;;;11.63;49.25
8253;BME280;61313;48.396;10.008;2023-02-19T13:59:24;96917.13;;;11.39;49.90
8253;BME280;61313;48.396;10.008;2023-02-19T14:07:18;96934.69;;;11.39;50.52
8253;BME280;61313;48.396;10.008;2023-02-19T14:09:45;96927.22;;;11.50;50.49
8253;BME280;61313;48.396;10.008;2023-02-19T14:27:48;96898.78;;;11.38;49.08
8253;BME280;61313;48.396;10.008;2023-02-19T14:30:14;96902.78;;;11.48;49.02
8253;BME280;61313;48.396;10.008;2023-02-19T14:32:40;96908.81;;;11.50;48.99
8253;BME280;61313;48.396;10.008;2023-02-19T14:35:20;96905.66;;;11.64;49.06
8253;BME280;61313;48.396;10.008;2023-02-19T14:37:47;96903.75;;;11.45;49.09
8253;BME280;61313;48.396;10.008;2023-02-19T14:40:29;96899.19;;;11.51;48.70
8253;BME280;61313;48.396;10.008;2023-02-19T14:42:57;96897.78;;;11.42;48.32
8253;BME280;61313;48.396;10.008;2023-02-19T14:45:26;96896.47;;;11.52;48.71
8253;BME280;61313;48.396;10.008;2023-02-19T14:47:54;96907.16;;;11.48;48.85
8253;BME280;61313;48.396;10.008;2023-02-19T14:50:29;96911.22;;;11.56;48.40
8253;BME280;61313;48.396;10.008;2023-02-19T14:53:01;96909.34;;;11.60;48.52
8253;BME280;61313;48.396;10.008;2023-02-19T14:55:30;96913.06;;;11.54;49.19
8253;BME280;61313;48.396;10.008;2023-02-19T14:58:00;96920.22;;;11.51;48.56
8253;BME280;61313;48.396;10.008;2023-02-19T15:00:33;96912.81;;;11.60;48.80
8253;BME280;61313;48.396;10.008;2023-02-19T15:02:58;96913.97;;;11.53;47.95
8253;BME280;61313;48.396;10.008;2023-02-19T15:07:51;96922.75;;;11.52;47.52
8253;BME280;61313;48.396;10.008;2023-02-19T15:10:17;96934.25;;;11.50;47.63
8253;BME280;61313;48.396;10.008;2023-02-19T15:12:53;96925.56;;;11.48;47.83
8253;BME280;61313;48.396;10.008;2023-02-19T15:15:30;96923.25;;;11.40;47.81
8253;BME280;61313;48.396;10.008;2023-02-19T15:17:58;96936.56;;;11.35;48.03
8253;BME280;61313;48.396;10.008;2023-02-19T15:20:27;96938.56;;;11.29;48.05
8253;BME280;61313;48.396;10.008;2023-02-19T15:22:55;96952.91;;;11.20;48.04